Time;durP1;ratioP1;P1;durP2;ratioP2;P2;SDS_P1;SDS_P2;PMS_P1;PMS_P2;Temp;Humidity;BMP_temperature;BMP_pressure;BME280_temperature;BME280_humidity;BME280_pressure;Samples;Min_cycle;Max_cycle;Signal;HPM_P1;HPM_P2
2022/10/21 00:00:37;;;;;;;3.25;2.00;;;18.70;48.20;;;;;;6199312;22;20235;-82
2022/10/21 00:03:03;;;;;;;3.53;2.17;;;18.60;48.20;;;;;;6250357;22;20180;-81
2022/10/21 00:05:29;;;;;;;3.38;1.90;;;18.70;48.30;;;;;;6225541;22;20145;-84
2022/10/21 00:07:55;;;;;;;2.05;1.80;;;18.60;48.20;;;;;;6250607;22;20444;-82
2022/10/21 00:10:21;;;;;;;2.65;1.88;;;18.60;48.20;;;;;;6224772;22;20599;-82
2022/10/21 00:12:47;;;;;;;2.90;1.90;;;18.60;48.30;;;;;;6250036;22;20137;-83
2022/10/21 00:15:13;;;;;;;2.10;1.90;;;18.60;48.30;;;;;;6225247;22;20141;-82
2022/10/21 00:17:40;;;;;;;2.40;1.85;;;18.60;48.30;;;;;;6250226;22;20557;-82
2022/10/21 00:20:07;;;;;;;3.03;1.98;;;18.60;48.40;;;;;;6250350;22;20234;-82
2022/10/21 00:22:33;;;;;;;2.10;1.90;;;18.60;48.40;;;;;;6224644;22;20170;-82
2022/10/21 00:24:59;;;;;;;2.55;2.03;;;18.60;48.40;;;;;;6225164;22;20137;-82
2022/10/21 00:27:25;;;;;;;2.80;1.90;;;18.60;48.40;;;;;;6250491;22;20140;-82
2022/10/21 00:29:56;;;;;;;3.25;1.92;;;18.60;48.50;;;;;;6225403;22;20144;-82
2022/10/21 00:32:26;;;;;;;2.15;1.95;;;18.60;48.50;;;;;;6174192;22;20487;-82
2022/10/21 00:34:52;;;;;;;2.05;1.85;;;18.60;48.50;;;;;;6199063;22;20156;-82
2022/10/21 00:37:18;;;;;;;2.25;2.05;;;18.60;48.50;;;;;;6249829;22;20247;-82
2022/10/21 00:39:49;;;;;;;2.45;1.73;;;18.60;48.50;;;;;;6249672;22;20208;-82
2022/10/21 00:42:18;;;;;;;2.50;2.08;;;18.60;48.60;;;;;;6150578;22;20572;-81
2022/10/21 00:45:00;;;;;;;2.28;2.08;;;18.60;48.60;;;;;;6225563;22;20141;-82
2022/10/21 00:47:40;;;;;;;2.30;2.10;;;18.60;48.60;;;;;;6250221;22;20467;-82
2022/10/21 00:50:08;;;;;;;2.45;1.80;;;18.60;48.70;;;;;;6133132;23;20204;-82
2022/10/21 00:52:34;;;;;;;2.00;1.80;;;18.60;48.70;;;;;;6219373;23;20141;-82
2022/10/21 00:55:04;;;;;;;2.83;1.83;;;18.60;48.70;;;;;;6219688;23;20141;-81
2022/10/21 00:57:30;;;;;;;2.10;1.90;;;18.60;48.70;;;;;;6194281;23;20189;-82
2022/10/21 00:59:58;;;;;;;2.85;1.98;;;18.50;48.80;;;;;;6222527;23;20218;-82
2022/10/21 01:02:24;;;;;;;3.13;2.10;;;18.50;49.20;;;;;;6196309;23;20240;-81
2022/10/21 01:04:51;;;;;;;1.95;1.77;;;18.60;48.60;;;;;;6221713;23;20134;-82
2022/10/21 01:07:24;;;;;;;2.30;2.03;;;18.60;48.80;;;;;;6221868;23;20442;-81
2022/10/21 01:09:57;;;;;;;1.98;1.80;;;18.50;48.80;;;;;;6195773;23;20250;-82
2022/10/21 01:12:33;;;;;;;2.25;1.90;;;18.50;48.80;;;;;;6220722;23;20153;-82
2022/10/21 01:15:07;;;;;;;2.33;1.70;;;18.50;48.90;;;;;;6222428;23;20157;-82
2022/10/21 01:17:58;;;;;;;2.53;1.83;;;18.50;48.90;;;;;;6221628;23;20137;-81
2022/10/21 01:21:04;;;;;;;2.28;2.08;;;18.50;48.90;;;;;;6221023;23;20153;-82
2022/10/21 01:23:57;;;;;;;2.55;1.80;;;18.50;48.70;;;;;;6183690;23;20483;-82
2022/10/21 01:26:43;;;;;;;2.20;2.00;;;18.50;48.90;;;;;;6202761;23;20493;-82
2022/10/21 01:29:27;;;;;;;2.30;1.83;;;18.50;49.70;;;;;;6197086;23;20156;-82
2022/10/21 01:32:06;;;;;;;2.17;1.88;;;18.50;48.90;;;;;;6248399;23;20145;-82
2022/10/21 01:34:46;;;;;;;2.55;1.90;;;18.50;49.10;;;;;;6195961;23;20215;-82
2022/10/21 01:37:21;;;;;;;2.67;1.95;;;18.50;49.00;;;;;;6221506;23;20161;-81
2022/10/21 01:39:55;;;;;;;2.58;1.90;;;18.50;49.10;;;;;;6221236;23;20140;-82
2022/10/21 01:42:28;;;;;;;1.95;1.80;;;18.50;49.10;;;;;;6195525;23;20149;-81
2022/10/21 01:45:01;;;;;;;2.20;1.92;;;18.50;49.10;;;;;;6196487;23;20145;-81
2022/10/21 01:47:37;;;;;;;3.40;2.03;;;18.60;49.10;;;;;;6195886;23;20149;-81
2022/10/21 01:50:12;;;;;;;3.38;1.95;;;18.50;49.10;;;;;;6195623;23;20196;-81
2022/10/21 01:52:44;;;;;;;2.65;1.90;;;18.50;49.20;;;;;;6123160;23;20149;-81
2022/10/21 01:55:13;;;;;;;2.15;1.95;;;18.50;49.20;;;;;;6145662;23;20581;-81
2022/10/21 01:57:41;;;;;;;2.05;1.85;;;18.40;49.80;;;;;;6197175;23;20458;-82
2022/10/21 02:00:12;;;;;;;2.10;1.90;;;18.50;49.10;;;;;;6220919;23;20133;-81
2022/10/21 02:02:41;;;;;;;2.00;1.83;;;18.50;49.20;;;;;;6145888;23;20145;-82
2022/10/21 02:05:15;;;;;;;2.00;1.90;;;18.50;49.10;;;;;;6196537;23;20153;-82
2022/10/21 02:07:41;;;;;;;3.20;1.83;;;18.50;49.20;;;;;;6146862;23;20157;-82
2022/10/21 02:10:11;;;;;;;2.35;2.15;;;18.50;49.20;;;;;;6195880;23;20153;-82
2022/10/21 02:12:42;;;;;;;3.15;2.00;;;18.50;49.20;;;;;;6121130;23;20157;-81
2022/10/21 02:15:08;;;;;;;2.00;1.80;;;18.50;49.40;;;;;;6146233;23;20165;-82
2022/10/21 02:17:39;;;;;;;1.90;1.70;;;18.50;49.40;;;;;;6220721;23;20215;-82
2022/10/21 02:20:06;;;;;;;2.28;1.92;;;18.50;49.40;;;;;;6146000;23;20156;-82
2022/10/21 02:22:33;;;;;;;2.33;2.03;;;18.50;49.30;;;;;;6196274;23;20572;-82
2022/10/21 02:25:02;;;;;;;2.22;1.80;;;18.40;49.30;;;;;;6171137;23;20149;-82
2022/10/21 02:27:32;;;;;;;2.13;1.92;;;18.50;49.50;;;;;;6221112;23;20148;-82
2022/10/21 02:29:58;;;;;;;4.40;2.00;;;18.40;49.60;;;;;;6170388;23;20659;-82
2022/10/21 02:32:31;;;;;;;1.80;1.70;;;18.40;49.40;;;;;;6195353;23;20149;-82
2022/10/21 02:35:22;;;;;;;2.17;1.90;;;18.40;49.30;;;;;;6196077;23;20154;-82
2022/10/21 02:38:04;;;;;;;3.00;1.92;;;18.40;49.40;;;;;;6195556;23;20157;-82
2022/10/21 02:40:36;;;;;;;2.40;1.83;;;18.50;49.40;;;;;;6220728;23;20232;-82
2022/10/21 02:43:14;;;;;;;2.22;1.75;;;18.40;49.40;;;;;;6195526;23;20484;-82
2022/10/21 02:45:45;;;;;;;2.22;2.00;;;18.40;49.40;;;;;;6195481;23;20199;-81
2022/10/21 02:48:11;;;;;;;2.20;1.85;;;18.40;49.60;;;;;;6146344;23;20495;-82
2022/10/21 02:50:42;;;;;;;2.30;1.98;;;18.40;49.50;;;;;;6219961;23;20251;-82
2022/10/21 02:53:08;;;;;;;2.03;1.80;;;18.40;49.50;;;;;;6145477;23;20164;-82
2022/10/21 02:55:34;;;;;;;1.85;1.67;;;18.40;49.60;;;;;;6246238;23;20484;-82
2022/10/21 02:58:04;;;;;;;2.78;1.90;;;18.40;49.50;;;;;;6220517;23;20145;-82
2022/10/21 03:00:34;;;;;;;2.55;1.67;;;18.40;49.60;;;;;;6170116;23;20157;-82
2022/10/21 03:03:00;;;;;;;2.47;1.70;;;18.40;49.60;;;;;;6194790;23;20659;-82
2022/10/21 03:05:31;;;;;;;1.80;1.70;;;18.40;49.70;;;;;;6245480;23;20488;-82
2022/10/21 03:07:57;;;;;;;2.22;2.00;;;18.40;49.70;;;;;;6144826;23;20608;-82
2022/10/21 03:10:27;;;;;;;3.15;1.80;;;18.40;49.70;;;;;;6245478;23;20129;-82
2022/10/21 03:12:54;;;;;;;2.20;1.80;;;18.40;49.60;;;;;;6170034;23;20647;-82
2022/10/21 03:15:23;;;;;;;1.90;1.80;;;18.40;49.70;;;;;;6220761;23;20145;-82
2022/10/21 03:17:53;;;;;;;2.15;1.95;;;18.40;49.80;;;;;;6170055;23;20176;-82
2022/10/21 03:20:19;;;;;;;1.85;1.70;;;18.50;49.80;;;;;;6144713;23;20153;-82
2022/10/21 03:22:45;;;;;;;1.85;1.75;;;18.40;49.90;;;;;;6221204;23;20224;-82
2022/10/21 03:25:11;;;;;;;1.90;1.70;;;18.40;50.00;;;;;;6245272;23;20589;-81
2022/10/21 03:27:37;;;;;;;1.80;1.65;;;18.40;49.90;;;;;;6245339;23;20511;-82
2022/10/21 03:30:08;;;;;;;2.13;1.92;;;18.40;49.70;;;;;;6220837;23;20142;-81
2022/10/21 03:32:34;;;;;;;2.05;1.80;;;18.30;49.70;;;;;;6194481;23;20153;-81
2022/10/21 03:35:00;;;;;;;1.60;1.50;;;18.50;49.80;;;;;;6220626;23;20176;-82
2022/10/21 03:37:26;;;;;;;1.83;1.60;;;18.50;50.00;;;;;;6244987;23;20164;-82
2022/10/21 03:39:52;;;;;;;2.58;1.92;;;18.40;49.90;;;;;;6220268;23;20211;-82
2022/10/21 03:42:18;;;;;;;1.95;1.75;;;18.40;50.00;;;;;;6220130;23;20480;-82
2022/10/21 03:44:48;;;;;;;2.15;1.70;;;18.40;50.00;;;;;;6247083;23;20136;-81
2022/10/21 03:47:14;;;;;;;1.83;1.65;;;18.40;49.90;;;;;;6144654;23;20597;-83
2022/10/21 03:49:41;;;;;;;2.05;1.85;;;18.30;50.00;;;;;;6219614;23;20197;-82
2022/10/21 03:52:12;;;;;;;2.05;1.80;;;18.30;50.10;;;;;;6245324;23;20134;-81
2022/10/21 03:54:42;;;;;;;2.00;1.80;;;18.30;50.10;;;;;;6169186;23;20268;-81
2022/10/21 03:57:12;;;;;;;2.20;1.90;;;18.30;50.00;;;;;;6194103;23;20250;-82
2022/10/21 03:59:42;;;;;;;2.05;1.80;;;18.40;50.00;;;;;;6169026;23;20188;-82
2022/10/21 04:02:11;;;;;;;2.38;1.95;;;18.40;50.10;;;;;;6169289;23;20181;-82
2022/10/21 04:04:40;;;;;;;2.15;1.70;;;18.30;50.00;;;;;;6169127;23;20199;-82
2022/10/21 04:07:10;;;;;;;1.77;1.67;;;18.30;50.00;;;;;;6144327;23;20157;-82
2022/10/21 04:09:40;;;;;;;2.58;1.67;;;18.40;50.10;;;;;;6218920;23;20164;-82
2022/10/21 04:12:10;;;;;;;1.80;1.70;;;18.40;50.10;;;;;;6168978;23;20160;-82
2022/10/21 04:14:39;;;;;;;2.70;1.77;;;18.40;50.00;;;;;;6169353;23;20157;-82
2022/10/21 04:17:08;;;;;;;2.15;1.90;;;18.30;50.10;;;;;;6193678;23;20267;-82
2022/10/21 04:19:38;;;;;;;1.70;1.60;;;18.30;50.10;;;;;;6193849;23;20157;-82
2022/10/21 04:22:10;;;;;;;2.10;1.90;;;18.40;50.30;;;;;;6169090;23;20605;-82
2022/10/21 04:24:41;;;;;;;2.17;1.70;;;18.30;50.10;;;;;;6169058;23;20154;-82
2022/10/21 04:27:11;;;;;;;1.73;1.63;;;18.30;50.10;;;;;;6169078;23;20149;-82
2022/10/21 04:29:40;;;;;;;2.20;2.00;;;18.30;50.30;;;;;;6193845;23;20161;-82
2022/10/21 04:32:08;;;;;;;1.85;1.75;;;18.30;50.20;;;;;;6143917;23;20165;-82
2022/10/21 04:34:36;;;;;;;1.70;1.60;;;18.40;50.20;;;;;;6144460;23;20476;-82
2022/10/21 04:37:04;;;;;;;2.70;1.83;;;18.30;50.20;;;;;;6169005;23;20648;-82
2022/10/21 04:39:33;;;;;;;1.75;1.65;;;18.40;50.40;;;;;;6169451;23;20160;-82
2022/10/21 04:42:01;;;;;;;2.35;1.90;;;18.30;50.40;;;;;;6144362;23;20480;-83
2022/10/21 04:44:29;;;;;;;2.05;1.70;;;18.30;50.40;;;;;;6144412;23;20236;-82
2022/10/21 04:46:58;;;;;;;2.40;1.73;;;18.30;50.30;;;;;;6168923;23;20229;-82
2022/10/21 04:49:26;;;;;;;1.90;1.70;;;18.30;50.40;;;;;;6193449;23;20255;-83
2022/10/21 04:51:53;;;;;;;1.70;1.60;;;18.30;50.50;;;;;;6168612;23;20563;-81
2022/10/21 04:54:23;;;;;;;2.05;1.85;;;18.30;50.50;;;;;;6168797;23;20157;-82
2022/10/21 04:56:50;;;;;;;1.80;1.70;;;18.30;50.60;;;;;;6168859;23;20185;-82
2022/10/21 04:59:17;;;;;;;2.40;1.90;;;18.30;50.60;;;;;;6143910;23;20153;-82
2022/10/21 05:01:44;;;;;;;1.90;1.70;;;18.20;50.60;;;;;;6168423;23;20157;-82
2022/10/21 05:04:11;;;;;;;3.03;1.70;;;18.20;50.50;;;;;;6168233;23;20149;-82
2022/10/21 05:06:38;;;;;;;1.83;1.70;;;18.20;50.70;;;;;;6143795;23;20480;-82
2022/10/21 05:09:05;;;;;;;2.28;1.90;;;18.20;50.50;;;;;;6168702;23;20231;-82
2022/10/21 05:11:34;;;;;;;2.35;1.60;;;18.30;50.30;;;;;;6169092;23;20188;-82
2022/10/21 05:14:01;;;;;;;2.20;1.65;;;18.30;50.10;;;;;;6220254;23;20146;-82
2022/10/21 05:16:31;;;;;;;1.67;1.58;;;18.40;49.70;;;;;;6220519;23;20474;-82
2022/10/21 05:18:58;;;;;;;1.40;1.30;;;18.50;49.40;;;;;;6169524;23;20542;-82
2022/10/21 05:21:23;;;;;;;2.08;1.50;;;18.50;49.30;;;;;;6224732;23;20138;-82
2022/10/21 05:23:50;;;;;;;1.50;1.40;;;18.50;49.10;;;;;;6226588;23;20145;-82
2022/10/21 05:26:15;;;;;;;1.50;1.40;;;18.50;49.10;;;;;;6251780;23;20164;-82
2022/10/21 05:28:46;;;;;;;1.60;1.50;;;18.50;48.90;;;;;;6227039;23;20184;-82
2022/10/21 05:31:12;;;;;;;2.20;1.50;;;18.60;48.90;;;;;;6175913;23;20628;-82
2022/10/21 05:33:37;;;;;;;1.67;1.50;;;18.60;48.70;;;;;;6252321;23;20125;-82
2022/10/21 05:36:07;;;;;;;1.60;1.50;;;18.60;48.80;;;;;;6227383;23;20165;-82
2022/10/21 05:38:37;;;;;;;2.30;1.65;;;18.60;48.70;;;;;;6201167;23;20153;-81
2022/10/21 05:41:05;;;;;;;1.70;1.60;;;18.60;48.80;;;;;;6175422;23;20233;-82
2022/10/21 05:43:33;;;;;;;1.60;1.50;;;18.60;48.70;;;;;;6226741;23;20468;-82
2022/10/21 05:46:03;;;;;;;1.95;1.75;;;18.60;48.70;;;;;;6228762;23;20142;-82
2022/10/21 05:48:29;;;;;;;1.83;1.50;;;18.60;48.60;;;;;;6179815;22;20157;-82
2022/10/21 05:51:00;;;;;;;1.60;1.50;;;18.70;48.50;;;;;;6209747;22;20491;-82
2022/10/21 05:53:30;;;;;;;1.45;1.35;;;18.70;48.50;;;;;;6182016;22;20153;-81
2022/10/21 05:55:58;;;;;;;1.30;1.20;;;18.70;48.50;;;;;;6207386;22;20180;-81
2022/10/21 05:58:30;;;;;;;1.73;1.63;;;18.70;48.40;;;;;;6208359;22;20152;-82
2022/10/21 06:00:56;;;;;;;1.70;1.60;;;18.70;48.70;;;;;;6181739;22;20159;-82
2022/10/21 06:03:23;;;;;;;1.70;1.60;;;18.70;48.50;;;;;;6233603;22;20148;-82
2022/10/21 06:05:49;;;;;;;1.30;1.20;;;18.70;48.30;;;;;;6233894;22;20149;-82
2022/10/21 06:08:16;;;;;;;1.50;1.40;;;18.70;48.40;;;;;;6207244;22;20199;-82
2022/10/21 06:10:45;;;;;;;1.52;1.42;;;18.70;48.40;;;;;;6258351;22;20179;-82
2022/10/21 06:13:16;;;;;;;1.60;1.50;;;18.70;48.30;;;;;;6181422;22;20584;-82
2022/10/21 06:15:42;;;;;;;2.22;1.42;;;18.60;48.30;;;;;;6156607;22;20176;-82
2022/10/21 06:18:08;;;;;;;1.52;1.42;;;18.70;48.20;;;;;;6207395;22;20148;-82
2022/10/21 06:20:37;;;;;;;1.70;1.40;;;18.70;48.20;;;;;;6207640;22;20151;-82
2022/10/21 06:23:07;;;;;;;1.60;1.50;;;18.60;48.10;;;;;;6183283;22;20160;-82
2022/10/21 06:25:36;;;;;;;1.40;1.30;;;18.70;48.30;;;;;;6185991;22;20149;-82
2022/10/21 06:28:05;;;;;;;1.65;1.48;;;18.70;48.30;;;;;;6210523;22;20155;-82
2022/10/21 06:30:30;;;;;;;1.50;1.40;;;18.70;48.30;;;;;;6159112;22;20148;-83
2022/10/21 06:32:59;;;;;;;1.60;1.50;;;18.70;48.30;;;;;;6262037;22;20156;-82
2022/10/21 06:35:28;;;;;;;1.67;1.58;;;18.70;48.30;;;;;;6185122;22;20149;-81
2022/10/21 06:37:58;;;;;;;1.50;1.40;;;18.70;48.20;;;;;;6159928;22;20149;-82
2022/10/21 06:40:29;;;;;;;1.70;1.50;;;18.70;48.20;;;;;;6185011;22;20599;-81
2022/10/21 06:42:58;;;;;;;1.40;1.30;;;18.70;48.20;;;;;;6211056;22;20140;-82
2022/10/21 06:45:27;;;;;;;1.73;1.33;;;18.70;48.20;;;;;;6205899;22;20194;-82
2022/10/21 06:47:55;;;;;;;2.00;1.60;;;18.70;48.30;;;;;;6235515;22;20144;-81
2022/10/21 06:50:26;;;;;;;1.67;1.27;;;18.70;48.30;;;;;;6205196;23;20192;-82
2022/10/21 06:52:53;;;;;;;1.40;1.30;;;18.70;48.30;;;;;;6205166;23;20159;-82
2022/10/21 06:55:22;;;;;;;1.75;1.48;;;18.70;48.30;;;;;;6230697;23;20146;-82
2022/10/21 06:57:49;;;;;;;3.20;1.58;;;18.70;48.30;;;;;;6179695;23;20157;-82
2022/10/21 07:00:17;;;;;;;2.05;1.50;;;18.70;48.30;;;;;;6230474;23;20541;-82
2022/10/21 07:02:50;;;;;;;1.92;1.73;;;18.70;48.30;;;;;;6179067;23;20150;-82
2022/10/21 07:05:18;;;;;;;1.60;1.50;;;18.70;48.30;;;;;;6205381;23;20169;-82
2022/10/21 07:07:46;;;;;;;1.30;1.20;;;18.70;48.20;;;;;;6231135;23;20156;-81
2022/10/21 07:10:13;;;;;;;1.75;1.60;;;18.70;48.30;;;;;;6206538;23;20154;-82
2022/10/21 07:12:40;;;;;;;1.50;1.40;;;18.70;48.30;;;;;;6231744;23;20172;-82
2022/10/21 07:15:09;;;;;;;1.45;1.35;;;18.70;48.30;;;;;;6232023;23;20149;-82
2022/10/21 07:17:38;;;;;;;1.83;1.38;;;18.70;48.30;;;;;;6182645;23;20191;-82
2022/10/21 07:20:09;;;;;;;1.70;1.60;;;18.70;48.30;;;;;;6206321;23;20608;-82
2022/10/21 07:22:34;;;;;;;1.67;1.50;;;18.80;48.30;;;;;;6179276;23;20158;-82
2022/10/21 07:25:02;;;;;;;1.70;1.60;;;18.70;48.30;;;;;;6233494;23;20171;-82
2022/10/21 07:27:30;;;;;;;2.55;1.40;;;18.70;49.00;;;;;;6254298;23;20156;-82
2022/10/21 07:29:56;;;;;;;1.70;1.40;;;18.70;48.30;;;;;;6227553;23;20157;-82
2022/10/21 07:32:21;;;;;;;1.50;1.40;;;18.80;48.30;;;;;;6228252;23;20183;-82
2022/10/21 07:34:47;;;;;;;1.50;1.40;;;18.80;48.30;;;;;;6227012;23;20153;-81
2022/10/21 07:37:14;;;;;;;1.70;1.60;;;18.90;48.30;;;;;;6245516;23;20252;-81
2022/10/21 07:39:39;;;;;;;1.40;1.30;;;18.90;48.20;;;;;;6245574;23;20161;-81
2022/10/21 07:42:05;;;;;;;1.42;1.33;;;18.80;48.10;;;;;;6220841;23;20215;-81
2022/10/21 07:44:31;;;;;;;1.77;1.67;;;18.90;48.30;;;;;;6221565;23;20145;-81
2022/10/21 07:47:00;;;;;;;2.42;1.70;;;18.90;48.30;;;;;;6200213;23;20157;-81
2022/10/21 07:49:25;;;;;;;1.60;1.50;;;18.90;48.40;;;;;;6214889;23;20200;-81
2022/10/21 07:51:52;;;;;;;1.40;1.30;;;19.00;48.30;;;;;;6165244;23;20158;-81
2022/10/21 07:54:18;;;;;;;2.83;1.60;;;19.00;48.20;;;;;;6189841;23;20622;-82
2022/10/21 07:56:47;;;;;;;1.90;1.70;;;19.00;48.20;;;;;;6190203;23;20177;-81
2022/10/21 07:59:13;;;;;;;1.40;1.30;;;19.00;48.30;;;;;;6190432;23;20200;-81
2022/10/21 08:01:43;;;;;;;1.77;1.60;;;19.00;48.20;;;;;;6167227;23;20165;-82
2022/10/21 08:04:14;;;;;;;1.50;1.40;;;19.00;48.20;;;;;;6166743;23;20154;-81
2022/10/21 08:06:42;;;;;;;1.60;1.50;;;19.00;48.20;;;;;;6117974;23;20528;-82
2022/10/21 08:09:08;;;;;;;1.70;1.60;;;19.00;48.10;;;;;;6165982;23;20166;-81
2022/10/21 08:11:34;;;;;;;1.60;1.50;;;19.00;48.20;;;;;;6167460;23;20158;-81
2022/10/21 08:14:00;;;;;;;1.75;1.50;;;18.90;48.20;;;;;;6191414;23;20184;-81
2022/10/21 08:16:26;;;;;;;1.52;1.42;;;18.90;48.30;;;;;;6216027;23;20249;-81
2022/10/21 08:18:52;;;;;;;1.50;1.40;;;19.00;48.20;;;;;;6165856;23;20150;-81
2022/10/21 08:21:17;;;;;;;1.52;1.42;;;18.90;48.20;;;;;;6193653;23;20599;-82
2022/10/21 08:23:43;;;;;;;1.27;1.17;;;18.90;48.20;;;;;;6247755;23;20148;-81
2022/10/21 08:26:13;;;;;;;1.58;1.48;;;19.00;48.10;;;;;;6223186;23;20561;-81
2022/10/21 08:28:41;;;;;;;1.60;1.50;;;19.00;48.00;;;;;;6249571;23;20125;-82
2022/10/21 08:31:08;;;;;;;1.73;1.63;;;19.00;48.00;;;;;;6223481;23;20263;-82
2022/10/21 08:33:34;;;;;;;1.50;1.40;;;19.00;48.00;;;;;;6198718;23;20213;-81
2022/10/21 08:36:06;;;;;;;1.60;1.40;;;19.00;48.00;;;;;;6248228;23;20161;-81
2022/10/21 08:38:32;;;;;;;1.65;1.55;;;19.10;47.90;;;;;;6197435;23;20153;-81
2022/10/21 08:40:59;;;;;;;1.50;1.40;;;19.10;47.90;;;;;;6222353;23;20184;-81
2022/10/21 08:43:30;;;;;;;1.58;1.48;;;19.00;48.50;;;;;;6197593;23;20191;-81
2022/10/21 08:46:05;;;;;;;1.50;1.40;;;19.10;48.00;;;;;;6172386;23;20234;-81
2022/10/21 08:48:35;;;;;;;1.55;1.45;;;19.00;47.80;;;;;;6199559;22;20156;-82
2022/10/21 08:51:02;;;;;;;1.60;1.50;;;19.10;47.80;;;;;;6200781;22;20315;-81
2022/10/21 08:53:39;;;;;;;1.58;1.48;;;19.10;47.90;;;;;;6174460;22;20243;-81
2022/10/21 08:56:11;;;;;;;1.52;1.42;;;19.10;47.90;;;;;;6277221;22;20160;-81
2022/10/21 08:58:37;;;;;;;1.50;1.40;;;19.10;47.80;;;;;;6225104;22;20137;-81
2022/10/21 09:01:17;;;;;;;2.03;1.77;;;19.10;47.70;;;;;;6250310;22;20148;-81
2022/10/21 09:03:53;;;;;;;1.70;1.60;;;19.10;47.80;;;;;;6202486;22;20148;-81
2022/10/21 09:06:24;;;;;;;1.40;1.30;;;19.10;47.70;;;;;;6200789;22;20145;-81
2022/10/21 09:08:57;;;;;;;1.73;1.60;;;19.10;47.60;;;;;;6200013;22;20513;-81
2022/10/21 09:11:58;;;;;;;1.48;1.38;;;19.00;47.70;;;;;;6250363;22;20187;-81
2022/10/21 09:14:48;;;;;;;1.50;1.40;;;19.10;47.70;;;;;;6277765;22;20160;-80
2022/10/21 09:17:20;;;;;;;1.60;1.50;;;19.10;47.60;;;;;;6282341;22;20168;-81
2022/10/21 09:19:57;;;;;;;1.98;1.60;;;19.10;47.60;;;;;;6253317;22;20133;-81
2022/10/21 09:22:48;;;;;;;1.67;1.30;;;19.00;47.50;;;;;;6252872;22;20156;-81
2022/10/21 09:25:20;;;;;;;1.55;1.40;;;19.10;47.50;;;;;;6252015;22;20183;-81
2022/10/21 09:27:46;;;;;;;1.63;1.52;;;19.10;47.50;;;;;;6227730;22;20145;-81
2022/10/21 09:30:21;;;;;;;1.60;1.50;;;19.10;47.30;;;;;;6279395;22;20224;-81
2022/10/21 09:32:49;;;;;;;1.27;1.17;;;19.20;47.20;;;;;;6227253;22;20144;-81
2022/10/21 09:35:26;;;;;;;1.50;1.40;;;19.20;47.10;;;;;;6252661;22;20503;-81
2022/10/21 09:37:56;;;;;;;1.67;1.50;;;19.20;47.20;;;;;;6252638;22;20144;-82
2022/10/21 09:40:28;;;;;;;1.52;1.38;;;19.20;47.00;;;;;;6252759;22;20129;-82
2022/10/21 09:42:57;;;;;;;1.20;1.10;;;19.20;47.00;;;;;;6202120;22;20151;-82
2022/10/21 09:45:34;;;;;;;1.58;1.33;;;19.20;46.90;;;;;;6254019;22;20160;-82
2022/10/21 09:48:23;;;;;;;1.45;1.35;;;19.20;46.90;;;;;;6252803;22;20594;-81
2022/10/21 09:50:53;;;;;;;1.67;1.23;;;19.30;46.70;;;;;;6222787;23;20566;-81
2022/10/21 09:53:26;;;;;;;1.10;1.00;;;19.40;46.90;;;;;;6248273;23;20153;-81
2022/10/21 09:55:57;;;;;;;1.33;1.23;;;19.20;47.50;;;;;;6196953;23;20262;-81
2022/10/21 09:58:25;;;;;;;1.30;1.20;;;19.20;46.90;;;;;;6197141;23;20137;-81
2022/10/21 10:00:51;;;;;;;1.48;1.38;;;19.10;47.00;;;;;;6197487;23;20194;-81
2022/10/21 10:03:34;;;;;;;1.30;1.20;;;19.20;46.90;;;;;;6196988;23;20133;-81
2022/10/21 10:06:00;;;;;;;1.75;1.50;;;19.20;47.00;;;;;;6222718;23;20146;-81
2022/10/21 10:08:39;;;;;;;1.42;1.33;;;19.20;46.90;;;;;;6196137;23;20137;-81
2022/10/21 10:11:15;;;;;;;1.55;1.45;;;19.20;46.80;;;;;;6195976;23;20148;-82
2022/10/21 10:13:48;;;;;;;1.30;1.20;;;19.20;46.80;;;;;;6221459;23;20129;-81
2022/10/21 10:16:21;;;;;;;1.42;1.33;;;19.20;46.70;;;;;;6221643;23;20206;-82
2022/10/21 10:18:48;;;;;;;1.30;1.20;;;19.20;46.80;;;;;;6221920;23;20553;-81
2022/10/21 10:21:15;;;;;;;1.40;1.30;;;19.20;46.60;;;;;;6196749;23;20137;-81
2022/10/21 10:23:43;;;;;;;1.42;1.30;;;19.20;46.80;;;;;;6172036;23;20164;-81
2022/10/21 10:26:12;;;;;;;1.65;1.50;;;19.20;46.90;;;;;;6196911;23;20180;-81
2022/10/21 10:28:38;;;;;;;1.48;1.38;;;19.20;46.80;;;;;;6223376;23;20626;-81
2022/10/21 10:31:04;;;;;;;1.35;1.25;;;19.10;46.80;;;;;;6197771;23;20228;-81
2022/10/21 10:33:32;;;;;;;1.55;1.45;;;19.20;46.70;;;;;;6248568;23;20139;-82
2022/10/21 10:35:59;;;;;;;1.48;1.38;;;19.10;46.80;;;;;;6248436;23;20211;-82
2022/10/21 10:38:37;;;;;;;1.30;1.20;;;19.10;46.70;;;;;;6248486;23;20238;-81
2022/10/21 10:41:07;;;;;;;1.38;1.27;;;19.20;47.50;;;;;;6221191;23;20573;-82
2022/10/21 10:43:35;;;;;;;1.70;1.60;;;19.10;46.60;;;;;;6220769;23;20134;-81
2022/10/21 10:46:02;;;;;;;1.60;1.50;;;19.10;46.70;;;;;;6195124;23;20148;-81
2022/10/21 10:48:39;;;;;;;1.30;1.10;;;19.00;46.70;;;;;;6222523;22;20264;-82
2022/10/21 10:51:06;;;;;;;1.58;1.48;;;19.10;46.40;;;;;;6225901;22;20137;-82
2022/10/21 10:53:36;;;;;;;1.38;1.27;;;19.10;46.40;;;;;;6250483;22;20149;-82
2022/10/21 10:56:28;;;;;;;1.50;1.40;;;19.20;46.20;;;;;;6225277;22;20562;-82
2022/10/21 10:59:14;;;;;;;1.50;1.30;;;19.20;46.40;;;;;;6215778;22;20155;-83
2022/10/21 11:02:07;;;;;;;1.42;1.33;;;19.10;46.30;;;;;;6091869;23;20153;-81
2022/10/21 11:04:48;;;;;;;1.42;1.33;;;19.10;46.40;;;;;;6116567;23;20182;-82
2022/10/21 11:07:27;;;;;;;1.30;1.20;;;19.20;46.30;;;;;;6137014;23;20150;-82
2022/10/21 11:09:57;;;;;;;1.40;1.30;;;19.20;46.20;;;;;;6162124;23;20150;-82
2022/10/21 11:12:26;;;;;;;1.50;1.40;;;19.20;46.00;;;;;;6138332;23;20218;-81
2022/10/21 11:14:56;;;;;;;1.50;1.40;;;19.20;46.20;;;;;;6136620;23;20162;-82
2022/10/21 11:17:30;;;;;;;1.38;1.27;;;19.10;46.30;;;;;;6136579;23;20197;-82
2022/10/21 11:20:12;;;;;;;1.42;1.33;;;19.10;46.10;;;;;;6140174;23;20154;-82
2022/10/21 11:23:02;;;;;;;1.83;1.30;;;19.10;46.10;;;;;;6166465;23;20514;-82
2022/10/21 11:25:34;;;;;;;1.50;1.40;;;19.10;46.00;;;;;;6189748;23;20687;-82
2022/10/21 11:28:15;;;;;;;1.50;1.40;;;19.10;46.20;;;;;;6140229;23;20158;-82
2022/10/21 11:30:54;;;;;;;1.33;1.20;;;19.10;46.20;;;;;;6116874;23;20165;-82
2022/10/21 11:33:31;;;;;;;1.67;1.58;;;19.10;46.20;;;;;;6235777;22;20243;-82
2022/10/21 11:36:04;;;;;;;1.40;1.30;;;19.10;46.20;;;;;;6233448;22;20168;-82
2022/10/21 11:38:58;;;;;;;1.67;1.58;;;19.10;46.10;;;;;;6158152;22;20588;-82
2022/10/21 11:41:42;;;;;;;1.73;1.63;;;19.10;46.10;;;;;;6285022;22;20617;-82
2022/10/21 11:44:38;;;;;;;1.80;1.70;;;19.20;46.20;;;;;;6256187;22;20136;-82
2022/10/21 11:47:13;;;;;;;1.65;1.55;;;19.10;46.10;;;;;;6285212;22;20125;-82
2022/10/21 11:49:58;;;;;;;1.52;1.40;;;19.10;46.00;;;;;;6191208;23;20279;-82
2022/10/21 11:52:42;;;;;;;1.52;1.42;;;19.20;46.00;;;;;;6228883;23;20167;-82
2022/10/21 11:55:16;;;;;;;1.48;1.38;;;19.20;45.90;;;;;;6230223;23;20584;-82
2022/10/21 11:57:53;;;;;;;1.58;1.48;;;19.20;46.00;;;;;;6152326;23;20207;-82
2022/10/21 12:00:23;;;;;;;1.30;1.20;;;19.20;45.90;;;;;;6203585;23;20176;-83
2022/10/21 12:03:18;;;;;;;1.52;1.42;;;19.20;46.00;;;;;;6204673;23;20148;-82
2022/10/21 12:05:59;;;;;;;1.75;1.65;;;19.20;45.90;;;;;;6229160;23;20283;-82
2022/10/21 12:08:36;;;;;;;1.70;1.52;;;19.20;45.90;;;;;;6180470;23;20141;-82
2022/10/21 12:11:16;;;;;;;1.90;1.67;;;19.30;45.80;;;;;;6229044;23;20137;-81
2022/10/21 12:13:56;;;;;;;2.05;1.88;;;19.20;45.70;;;;;;6181236;23;20153;-82
2022/10/21 12:16:27;;;;;;;1.75;1.40;;;19.20;45.90;;;;;;6131266;23;20176;-82
2022/10/21 12:18:55;;;;;;;1.50;1.40;;;19.20;46.00;;;;;;6181407;23;20164;-82
2022/10/21 12:21:24;;;;;;;1.88;1.45;;;19.20;46.00;;;;;;6180372;23;20228;-83
2022/10/21 12:24:04;;;;;;;2.15;1.88;;;19.20;46.00;;;;;;6203048;23;20222;-82
2022/10/21 12:26:48;;;;;;;1.60;1.50;;;19.20;46.00;;;;;;6157407;23;20564;-82
2022/10/21 12:29:23;;;;;;;2.92;1.73;;;19.20;46.10;;;;;;6159729;23;20160;-82
2022/10/21 12:32:05;;;;;;;1.80;1.70;;;19.10;46.10;;;;;;6232127;23;20164;-83
2022/10/21 12:34:34;;;;;;;1.48;1.38;;;19.10;46.20;;;;;;6233399;23;20512;-82
2022/10/21 12:37:02;;;;;;;1.48;1.38;;;19.10;46.30;;;;;;6234308;23;20191;-83
2022/10/21 12:39:52;;;;;;;2.95;1.70;;;19.10;46.30;;;;;;6182001;23;20142;-83
2022/10/21 12:42:26;;;;;;;1.85;1.75;;;19.00;46.30;;;;;;6157202;23;20156;-82
2022/10/21 12:44:56;;;;;;;3.30;1.60;;;19.10;46.40;;;;;;6136292;23;20153;-82
2022/10/21 12:47:29;;;;;;;1.67;1.58;;;19.10;46.40;;;;;;6179437;23;20153;-81
2022/10/21 12:50:17;;;;;;;1.80;1.60;;;19.10;46.30;;;;;;6143168;23;20193;-82
2022/10/21 12:53:01;;;;;;;1.75;1.65;;;19.10;46.50;;;;;;6229064;23;20228;-82
2022/10/21 12:55:27;;;;;;;2.78;1.70;;;19.00;46.50;;;;;;6182419;23;20149;-82
2022/10/21 12:57:59;;;;;;;1.70;1.60;;;19.00;46.40;;;;;;6203594;23;20207;-83
2022/10/21 13:00:49;;;;;;;1.70;1.60;;;19.10;46.50;;;;;;6204661;23;20138;-82
2022/10/21 13:03:20;;;;;;;1.80;1.70;;;19.00;46.40;;;;;;6184603;23;20308;-82
2022/10/21 13:06:03;;;;;;;2.28;2.08;;;19.00;46.60;;;;;;6228994;23;20152;-82
2022/10/21 13:08:37;;;;;;;1.48;1.38;;;19.00;46.70;;;;;;6225931;23;20229;-81